Lexington, KY

4:39 PM EDT en Julio 27, 2017 (GMT -0400)
The Island Weather | | Change Station

Alt 968 ft 38.00 °N, 84.46 °W | Updated 29 seconds ago

Muy nublado
Muy nublado
83.5 ° F
Sensación térmica 100 ° F
N
6.0
Viento Variable Viento desde Oeste

Hoy
Alta -- | Baja -- ° F
--% Posibilidad de precipitaciones
Ayer
Alta -- | Baja -- ° F
Precip. -- pul
Presión 29.92 pul
Visibilidad 6.0 Millas
Nubes Nubes dispersas 2200 ft
Muy nublado 3100 ft
Nublado 9500 ft
Índice de calor 100 ° F
Punto de rocío 83 ° F
Humedad 98%
Precipitaciones 0.00 pul
Espesor de la nieve No disponible.
6:36 AM 8:51 PM
Creciente, 23% visible
SPECI KLEX 272030Z 31006KT 6SM VCTS -RA SCT022 BKN031 OVC095 28/23 A2992 RMK AO2 LTG DSNT S AND SW RAB25 P0000 T02830233
Presión 29.92 pul
Visibilidad 6.0 Millas
Nubes Nubes dispersas 2200 ft
Muy nublado 3100 ft
Nublado 9500 ft
Índice de calor 100 ° F
Punto de rocío 83 ° F
Humedad 98%
Precipitaciones 0.00 pul
Espesor de la nieve No disponible.
6:36 AM 8:51 PM
Creciente, 23% visible
SPECI KLEX 272030Z 31006KT 6SM VCTS -RA SCT022 BKN031 OVC095 28/23 A2992 RMK AO2 LTG DSNT S AND SW RAB25 P0000 T02830233

Get Severe Weather Alerts

Thanks for signing up!

Be on the lookout for a verification email in your inbox.

You'll start receiving the daily forecast at 6 AM.

×

10-Day Weather Forecast

Almanac

Astronomía

Jul. 27, 2017 Salida Puesta
Hora real
Crepúsculo civil
Crepúsculo náutico
Crepúsculo astronómico
Luna
Horas de luz
Horas de luz
Tomorrow will be .
, % of the Moon is Illuminated

Extremos de hoy

Máximos del estado Bajos del estado

Community

WunderPhotos

Category 6

Welcome to Category 6. This is the collective home for Weather Underground's featured writeups by Dr. Jeff Masters (right), Bob Henson (left), Chris Burt, and other regular contributors.

Nearby

Calidad del aire

  Calidad del aire Índice AQ Contaminante
Not available.

Grosos de nieve

Estación Profundido Altura

Actividad de terremotos

Ciudad Distance Mag. Tiempo y dato
Magnitud mínima muestra es 2,5.

Temperaturas de aguas costeras

Lugar Temperatura

Stations

Estaciones meteorológicas cercanas

Ubicación de la estación Temp. Vientos helados Punto de rocío Humedad Viento Precip. Alt Actualizado Tipo
                   

Watches & Warnings

There are currently no watches in effect.